createdAt,value
2018-08-20T00:01:38.670Z,6.27
2018-08-20T00:04:06.141Z,12.13
2018-08-20T00:06:34.373Z,5.87
2018-08-20T00:09:01.946Z,7.23
2018-08-20T00:11:29.412Z,7.77
2018-08-20T00:13:56.882Z,16.30
2018-08-20T00:16:24.439Z,7.20
2018-08-20T00:18:51.894Z,10.23
2018-08-20T00:21:19.351Z,4.43
2018-08-20T00:23:46.814Z,6.03
2018-08-20T00:26:14.273Z,8.70
2018-08-20T00:28:41.759Z,9.20
2018-08-20T00:31:09.315Z,5.80
2018-08-20T00:33:36.771Z,4.80
2018-08-20T00:36:04.256Z,8.90
2018-08-20T00:38:31.703Z,5.67
2018-08-20T00:40:59.184Z,5.73
2018-08-20T00:43:26.728Z,6.43
2018-08-20T00:45:54.191Z,8.07
2018-08-20T00:48:21.657Z,7.17
2018-08-20T00:50:49.223Z,5.63
2018-08-20T00:53:16.684Z,7.80
2018-08-20T00:55:44.247Z,8.27
2018-08-20T00:58:11.708Z,4.37
2018-08-20T01:00:39.158Z,7.57
2018-08-20T01:03:06.651Z,9.60
2018-08-20T01:05:34.195Z,7.07
2018-08-20T01:08:01.760Z,10.13
2018-08-20T01:10:29.231Z,6.97
2018-08-20T01:12:56.698Z,5.90
2018-08-20T01:15:24.171Z,8.27
2018-08-20T01:17:52.434Z,12.83
2018-08-20T01:20:20.000Z,9.47
2018-08-20T01:22:47.565Z,8.23
2018-08-20T01:25:15.112Z,5.83
2018-08-20T01:27:42.589Z,8.77
2018-08-20T01:30:10.043Z,8.97
2018-08-20T01:32:37.607Z,6.30
2018-08-20T01:35:05.084Z,7.53
2018-08-20T01:37:32.536Z,4.83
2018-08-20T01:39:59.992Z,6.40
2018-08-20T01:42:27.567Z,10.50
2018-08-20T01:44:55.131Z,5.87
2018-08-20T01:47:22.604Z,7.37
2018-08-20T01:49:51.563Z,5.40
2018-08-20T01:52:19.024Z,2.80
2018-08-20T01:54:46.494Z,5.77
2018-08-20T01:57:14.069Z,7.03
2018-08-20T01:59:41.524Z,10.60
2018-08-20T02:02:09.000Z,4.63
2018-08-20T02:04:36.459Z,6.23
2018-08-20T02:07:03.928Z,5.33
2018-08-20T02:09:31.486Z,5.47
2018-08-20T02:11:58.951Z,5.37
2018-08-20T02:14:26.471Z,5.80
2018-08-20T02:16:54.807Z,6.13
2018-08-20T02:19:22.280Z,8.97
2018-08-20T02:21:50.503Z,6.20
2018-08-20T02:24:18.015Z,6.93
2018-08-20T02:26:46.271Z,6.87
2018-08-20T02:29:13.834Z,3.80
2018-08-20T02:31:41.414Z,5.27
2018-08-20T02:34:08.883Z,3.93
2018-08-20T02:36:36.336Z,8.00
2018-08-20T02:39:03.793Z,6.90
2018-08-20T02:41:31.254Z,6.77
2018-08-20T02:43:59.629Z,7.57
2018-08-20T02:46:27.191Z,4.17
2018-08-20T02:48:54.648Z,5.90
2018-08-20T02:51:22.121Z,5.57
2018-08-20T02:53:49.576Z,6.43
2018-08-20T02:56:17.152Z,3.30
2018-08-20T02:58:44.727Z,5.37
2018-08-20T03:01:12.187Z,3.60
2018-08-20T03:03:39.697Z,6.50
2018-08-20T03:06:07.199Z,4.50
2018-08-20T03:08:34.658Z,4.77
2018-08-20T03:11:02.228Z,2.00
2018-08-20T03:13:29.791Z,2.20
2018-08-20T03:15:57.356Z,3.23
2018-08-20T03:18:24.818Z,4.17
2018-08-20T03:20:52.288Z,1.90
2018-08-20T03:23:19.744Z,2.50
2018-08-20T03:25:47.207Z,3.40
2018-08-20T03:28:14.666Z,5.67
2018-08-20T03:30:42.229Z,3.10
2018-08-20T03:33:09.791Z,1.73
2018-08-20T03:35:37.354Z,5.10
2018-08-20T03:38:04.820Z,4.27
2018-08-20T03:40:32.284Z,2.87
2018-08-20T03:42:59.846Z,6.03
2018-08-20T03:45:27.410Z,2.67
2018-08-20T03:47:54.879Z,3.87
2018-08-20T03:50:22.445Z,4.03
2018-08-20T03:52:49.902Z,2.50
2018-08-20T03:55:17.471Z,3.80
2018-08-20T03:57:44.927Z,4.70
2018-08-20T04:00:12.538Z,2.20
2018-08-20T04:02:40.782Z,1.80
2018-08-20T04:05:08.341Z,1.83
2018-08-20T04:07:36.482Z,5.20
2018-08-20T04:10:03.980Z,1.77
2018-08-20T04:12:31.546Z,2.80
2018-08-20T04:14:59.014Z,4.53
2018-08-20T04:17:26.566Z,1.63
2018-08-20T04:19:54.022Z,2.10
2018-08-20T04:22:21.474Z,3.13
2018-08-20T04:24:48.952Z,1.50
2018-08-20T04:27:16.427Z,1.83
2018-08-20T04:29:43.985Z,2.17
2018-08-20T04:32:11.443Z,2.03
2018-08-20T04:34:39.011Z,3.00
2018-08-20T04:37:07.620Z,4.90
2018-08-20T04:39:35.091Z,4.20
2018-08-20T04:42:03.356Z,4.43
2018-08-20T04:44:30.795Z,2.30
2018-08-20T04:46:58.266Z,5.43
2018-08-20T04:49:25.735Z,2.43
2018-08-20T04:51:53.292Z,3.57
2018-08-20T04:54:20.888Z,4.33
2018-08-20T04:56:49.103Z,3.20
2018-08-20T04:59:16.575Z,2.43
2018-08-20T05:01:44.051Z,3.30
2018-08-20T05:04:11.626Z,2.63
2018-08-20T05:06:39.194Z,3.70
2018-08-20T05:09:06.755Z,2.23
2018-08-20T05:11:34.312Z,1.80
2018-08-20T05:14:02.676Z,2.23
2018-08-20T05:16:30.164Z,2.10
2018-08-20T05:18:57.712Z,1.93
2018-08-20T05:21:25.080Z,2.07
2018-08-20T05:23:52.550Z,2.30
2018-08-20T05:26:20.114Z,2.70
2018-08-20T05:28:47.558Z,2.33
2018-08-20T05:31:15.033Z,2.60
2018-08-20T05:33:42.613Z,2.17
2018-08-20T05:36:10.838Z,1.93
2018-08-20T05:38:38.309Z,3.13
2018-08-20T05:41:05.766Z,1.60
2018-08-20T05:43:33.231Z,1.37
2018-08-20T05:46:00.739Z,1.47
2018-08-20T05:48:28.204Z,2.33
2018-08-20T05:50:55.654Z,2.13
2018-08-20T05:53:23.220Z,2.00
2018-08-20T05:55:50.673Z,1.93
2018-08-20T05:58:18.142Z,3.77
2018-08-20T06:00:45.595Z,1.50
2018-08-20T06:03:13.051Z,1.57
2018-08-20T06:05:40.504Z,2.47
2018-08-20T06:08:07.974Z,2.77
2018-08-20T06:10:35.487Z,1.60
2018-08-20T06:13:03.713Z,2.13
2018-08-20T06:15:31.174Z,3.93
2018-08-20T06:17:58.639Z,1.17
2018-08-20T06:20:26.122Z,1.87
2018-08-20T06:22:53.604Z,1.30
2018-08-20T06:25:21.873Z,5.57
2018-08-20T06:27:50.091Z,2.35
2018-08-20T06:30:17.602Z,3.23
2018-08-20T06:32:45.061Z,1.50
2018-08-20T06:35:12.516Z,6.10
2018-08-20T06:37:40.049Z,2.30
2018-08-20T06:40:07.503Z,1.20
2018-08-20T06:42:34.998Z,8.87
2018-08-20T06:45:02.476Z,2.23
2018-08-20T06:47:29.947Z,2.13
2018-08-20T06:49:57.427Z,1.20
2018-08-20T06:52:25.684Z,1.30
2018-08-20T06:54:53.139Z,1.50
2018-08-20T06:57:20.714Z,2.10
2018-08-20T06:59:48.180Z,3.17
2018-08-20T07:02:15.639Z,1.40
2018-08-20T07:04:43.195Z,1.37
2018-08-20T07:07:10.760Z,3.60
2018-08-20T07:09:38.328Z,1.10
2018-08-20T07:12:05.800Z,1.37
2018-08-20T07:14:33.260Z,1.20
2018-08-20T07:17:00.818Z,1.93
2018-08-20T07:19:28.394Z,1.10
2018-08-20T07:21:55.864Z,1.83
2018-08-20T07:24:23.317Z,2.23
2018-08-20T07:26:50.860Z,2.23
2018-08-20T07:29:18.315Z,1.10
2018-08-20T07:31:45.785Z,0.90
2018-08-20T07:34:13.234Z,1.00
2018-08-20T07:36:40.707Z,1.40
2018-08-20T07:39:08.283Z,0.90
2018-08-20T07:41:35.735Z,0.90
2018-08-20T07:44:03.197Z,0.80
2018-08-20T07:46:30.664Z,0.93
2018-08-20T07:48:58.120Z,1.60
2018-08-20T07:51:25.579Z,1.13
2018-08-20T07:53:53.044Z,0.90
2018-08-20T07:56:20.618Z,1.57
2018-08-20T07:58:48.189Z,1.23
2018-08-20T08:01:15.751Z,1.17
2018-08-20T08:03:43.212Z,0.63
2018-08-20T08:06:10.679Z,0.70
2018-08-20T08:08:38.148Z,1.10
2018-08-20T08:11:05.611Z,0.77
2018-08-20T08:13:33.887Z,0.80
2018-08-20T08:16:01.437Z,0.70
2018-08-20T08:18:29.033Z,1.07
2018-08-20T08:20:57.288Z,0.60
2018-08-20T08:23:24.851Z,1.00
2018-08-20T08:25:52.315Z,0.63
2018-08-20T08:28:19.778Z,0.70
2018-08-20T08:30:47.339Z,1.40
2018-08-20T08:33:14.897Z,1.03
2018-08-20T08:35:42.360Z,1.60
2018-08-20T08:38:09.920Z,0.77
2018-08-20T08:40:37.408Z,1.00
2018-08-20T08:43:05.643Z,1.37
2018-08-20T08:45:33.098Z,0.80
2018-08-20T08:48:00.600Z,0.83
2018-08-20T08:50:28.216Z,1.47
2018-08-20T08:52:55.681Z,1.23
2018-08-20T08:55:23.131Z,0.93
2018-08-20T08:57:50.605Z,0.90
2018-08-20T09:00:18.065Z,2.07
2018-08-20T09:02:45.514Z,1.27
2018-08-20T09:05:13.044Z,0.57
2018-08-20T09:07:40.520Z,1.80
2018-08-20T09:10:08.772Z,1.20
2018-08-20T09:12:36.258Z,1.50
2018-08-20T09:15:03.724Z,0.50
2018-08-20T09:17:31.266Z,1.77
2018-08-20T09:19:58.740Z,1.13
2018-08-20T09:22:26.298Z,0.77
2018-08-20T09:24:53.760Z,0.90
2018-08-20T09:27:21.216Z,0.70
2018-08-20T09:29:48.680Z,0.60
2018-08-20T09:32:16.163Z,0.60
2018-08-20T09:34:44.415Z,0.80
2018-08-20T09:37:11.879Z,2.00
2018-08-20T09:39:39.452Z,0.87
2018-08-20T09:42:07.009Z,1.07
2018-08-20T09:44:34.471Z,0.80
2018-08-20T09:47:01.931Z,0.63
2018-08-20T09:49:29.380Z,1.57
2018-08-20T09:51:56.849Z,0.70
2018-08-20T09:54:24.303Z,0.90
2018-08-20T09:56:51.774Z,3.03
2018-08-20T09:59:20.230Z,5.37
2018-08-20T10:01:47.684Z,1.10
2018-08-20T10:04:15.155Z,1.67
2018-08-20T10:06:42.621Z,0.80
2018-08-20T10:09:10.077Z,0.83
2018-08-20T10:11:37.583Z,0.80
2018-08-20T10:14:05.042Z,1.17
2018-08-20T10:16:32.604Z,2.80
2018-08-20T10:19:00.074Z,0.70
2018-08-20T10:21:27.629Z,0.80
2018-08-20T10:23:55.187Z,1.30
2018-08-20T10:26:22.760Z,1.90
2018-08-20T10:28:50.345Z,0.80
2018-08-20T10:31:18.602Z,0.87
2018-08-20T10:33:46.068Z,1.37
2018-08-20T10:36:14.764Z,1.50
2018-08-20T10:38:42.212Z,1.67
2018-08-20T10:41:09.681Z,1.97
2018-08-20T10:43:37.265Z,1.00
2018-08-20T10:46:05.384Z,1.30
2018-08-20T10:48:32.944Z,0.63
2018-08-20T10:51:00.400Z,0.93
2018-08-20T10:53:27.845Z,2.10
2018-08-20T10:55:56.071Z,1.87
2018-08-20T10:58:23.535Z,0.80
2018-08-20T11:00:51.011Z,2.33
2018-08-20T11:03:18.579Z,1.00
2018-08-20T11:05:46.031Z,2.17
2018-08-20T11:08:13.494Z,1.93
2018-08-20T11:10:41.100Z,1.67
2018-08-20T11:13:08.628Z,2.17
2018-08-20T11:15:36.192Z,0.93
2018-08-20T11:18:03.647Z,0.80
2018-08-20T11:20:31.107Z,0.63
2018-08-20T11:22:58.679Z,1.13
2018-08-20T11:25:26.247Z,0.90
2018-08-20T11:27:53.824Z,0.90
2018-08-20T11:30:21.382Z,0.90
2018-08-20T11:32:48.840Z,0.60
2018-08-20T11:35:16.307Z,1.63
2018-08-20T11:37:43.885Z,1.43
2018-08-20T11:40:12.100Z,2.17
2018-08-20T11:42:39.607Z,0.67
2018-08-20T11:45:07.055Z,1.17
2018-08-20T11:47:34.647Z,0.63
2018-08-20T11:50:03.721Z,1.53
2018-08-20T11:52:31.198Z,0.83
2018-08-20T11:54:58.680Z,1.07
2018-08-20T11:57:26.948Z,1.50
2018-08-20T11:59:54.441Z,0.90
2018-08-20T12:02:22.658Z,0.73
2018-08-20T12:04:50.142Z,0.70
2018-08-20T12:07:17.780Z,0.80
2018-08-20T12:09:45.167Z,1.07
2018-08-20T12:12:13.777Z,0.87
2018-08-20T12:14:41.999Z,0.70
2018-08-20T12:17:09.474Z,0.73
2018-08-20T12:19:36.952Z,1.30
2018-08-20T12:22:04.433Z,0.50
2018-08-20T12:24:32.047Z,0.70
2018-08-20T12:26:59.556Z,2.53
2018-08-20T12:29:27.032Z,0.90
2018-08-20T12:31:55.302Z,0.90
2018-08-20T12:34:22.785Z,0.80
2018-08-20T12:36:50.229Z,3.07
2018-08-20T12:39:17.692Z,2.13
2018-08-20T12:41:45.159Z,1.20
2018-08-20T12:44:13.430Z,0.80
2018-08-20T12:46:40.889Z,1.00
2018-08-20T12:49:08.464Z,1.90
2018-08-20T12:51:37.432Z,0.87
2018-08-20T12:54:04.897Z,0.80
2018-08-20T12:56:32.371Z,1.07
2018-08-20T12:58:59.831Z,0.60
2018-08-20T13:01:27.294Z,0.80
2018-08-20T13:03:54.748Z,1.00
2018-08-20T13:06:22.229Z,1.30
2018-08-20T13:08:49.698Z,1.77
2018-08-20T13:11:17.143Z,0.70
2018-08-20T13:13:44.702Z,1.10
2018-08-20T13:16:12.231Z,0.73
2018-08-20T13:18:39.626Z,0.57
2018-08-20T13:21:07.215Z,0.50
2018-08-20T13:23:35.478Z,0.63
2018-08-20T13:26:02.937Z,0.70
2018-08-20T13:28:30.393Z,1.10
2018-08-20T13:30:57.977Z,0.77
2018-08-20T13:33:25.423Z,1.00
2018-08-20T13:35:52.891Z,1.63
2018-08-20T13:38:20.350Z,1.67
2018-08-20T13:40:47.799Z,1.17
2018-08-20T13:43:15.259Z,1.03
2018-08-20T13:45:42.746Z,0.57
2018-08-20T13:48:10.200Z,1.77
2018-08-20T13:50:37.770Z,1.33
2018-08-20T13:53:05.327Z,1.87
2018-08-20T13:55:32.786Z,0.80
2018-08-20T13:58:00.352Z,1.17
2018-08-20T14:00:27.826Z,1.97
2018-08-20T14:02:55.291Z,0.50
2018-08-20T14:05:23.513Z,1.37
2018-08-20T14:07:51.031Z,1.57
2018-08-20T14:10:18.490Z,0.70
2018-08-20T14:12:45.952Z,1.00
2018-08-20T14:15:13.511Z,1.13
2018-08-20T14:17:40.980Z,1.07
2018-08-20T14:20:08.427Z,1.53
2018-08-20T14:22:35.899Z,1.57
2018-08-20T14:25:03.477Z,0.90
2018-08-20T14:27:31.028Z,1.93
2018-08-20T14:29:58.592Z,0.50
2018-08-20T14:32:26.043Z,0.60
2018-08-20T14:34:53.615Z,1.40
2018-08-20T14:37:21.083Z,1.00
2018-08-20T14:39:48.643Z,0.97
2018-08-20T14:42:16.236Z,1.07
2018-08-20T14:44:43.676Z,0.50
2018-08-20T14:47:11.140Z,1.00
2018-08-20T14:49:38.595Z,2.00
2018-08-20T14:52:06.164Z,1.40
2018-08-20T14:54:33.743Z,1.17
2018-08-20T14:57:01.189Z,4.00
2018-08-20T14:59:28.757Z,1.00
2018-08-20T15:01:56.219Z,0.90
2018-08-20T15:04:24.816Z,0.70
2018-08-20T15:06:53.051Z,0.40
2018-08-20T15:09:20.650Z,0.80
2018-08-20T15:11:49.135Z,2.47
2018-08-20T15:14:16.716Z,1.67
2018-08-20T15:16:44.254Z,2.40
2018-08-20T15:19:11.824Z,0.97
2018-08-20T15:21:39.281Z,1.23
2018-08-20T15:24:06.854Z,0.43
2018-08-20T15:26:34.416Z,0.60
2018-08-20T15:29:01.880Z,1.27
2018-08-20T15:31:29.327Z,0.70
2018-08-20T15:33:57.923Z,1.30
2018-08-20T15:36:25.387Z,0.80
2018-08-20T15:38:52.959Z,0.50
2018-08-20T15:41:20.526Z,0.67
2018-08-20T15:43:48.817Z,0.90
2018-08-20T15:46:16.374Z,0.50
2018-08-20T15:48:44.542Z,0.77
2018-08-20T15:51:12.003Z,2.27
2018-08-20T15:53:39.471Z,0.50
2018-08-20T15:56:06.918Z,0.43
2018-08-20T15:58:34.397Z,0.47
2018-08-20T16:01:01.961Z,0.83
2018-08-20T16:03:29.515Z,1.33
2018-08-20T16:05:56.991Z,0.57
2018-08-20T16:08:25.223Z,0.70
2018-08-20T16:10:52.676Z,0.97
2018-08-20T16:13:20.194Z,1.97
2018-08-20T16:15:47.753Z,0.47
2018-08-20T16:18:15.211Z,1.30
2018-08-20T16:20:42.735Z,1.47
2018-08-20T16:23:10.253Z,0.67
2018-08-20T16:25:38.497Z,0.77
2018-08-20T16:28:05.945Z,0.50
2018-08-20T16:30:33.399Z,0.63
2018-08-20T16:33:00.872Z,0.90
2018-08-20T16:35:28.327Z,1.70
2018-08-20T16:37:55.819Z,0.63
2018-08-20T16:40:23.294Z,0.60
2018-08-20T16:42:50.743Z,0.67
2018-08-20T16:45:18.205Z,0.50
2018-08-20T16:47:45.670Z,0.70
2018-08-20T16:50:13.115Z,0.80
2018-08-20T16:52:40.598Z,0.73
2018-08-20T16:55:08.184Z,1.60
2018-08-20T16:57:36.508Z,0.50
2018-08-20T17:00:04.792Z,1.50
2018-08-20T17:02:33.400Z,1.90
2018-08-20T17:05:00.847Z,0.73
2018-08-20T17:07:28.296Z,0.70
2018-08-20T17:09:55.799Z,1.10
2018-08-20T17:12:23.369Z,0.87
2018-08-20T17:14:50.959Z,0.70
2018-08-20T17:17:18.399Z,0.60
2018-08-20T17:19:45.865Z,1.87
2018-08-20T17:22:14.823Z,0.60
2018-08-20T17:24:42.291Z,1.37
2018-08-20T17:27:09.745Z,1.57
2018-08-20T17:29:37.242Z,0.60
2018-08-20T17:32:04.703Z,0.60
2018-08-20T17:34:32.259Z,0.53
2018-08-20T17:36:59.831Z,1.47
2018-08-20T17:39:27.290Z,0.83
2018-08-20T17:41:55.897Z,0.63
2018-08-20T17:44:23.507Z,1.20
2018-08-20T17:46:50.957Z,0.70
2018-08-20T17:49:18.420Z,0.77
2018-08-20T17:51:45.995Z,1.43
2018-08-20T17:54:13.427Z,1.20
2018-08-20T17:56:41.671Z,1.43
2018-08-20T17:59:09.140Z,0.80
2018-08-20T18:01:36.595Z,1.43
2018-08-20T18:04:04.063Z,1.60
2018-08-20T18:06:31.519Z,0.80
2018-08-20T18:08:58.995Z,0.80
2018-08-20T18:11:26.523Z,1.97
2018-08-20T18:13:55.423Z,1.10
2018-08-20T18:16:22.904Z,1.57
2018-08-20T18:18:50.351Z,0.70
2018-08-20T18:21:17.820Z,4.03
2018-08-20T18:23:45.295Z,2.43
2018-08-20T18:26:12.780Z,1.10
2018-08-20T18:28:40.991Z,1.10
2018-08-20T18:31:08.439Z,1.07
2018-08-20T18:33:36.665Z,1.93
2018-08-20T18:36:04.116Z,2.00
2018-08-20T18:38:31.573Z,1.00
2018-08-20T18:40:59.069Z,1.60
2018-08-20T18:43:26.631Z,3.20
2018-08-20T18:45:54.187Z,2.93
2018-08-20T18:48:21.652Z,0.90
2018-08-20T18:50:49.102Z,1.13
2018-08-20T18:53:16.559Z,0.67
2018-08-20T18:55:44.022Z,0.90
2018-08-20T18:58:11.484Z,1.13
2018-08-20T19:00:38.966Z,0.90
2018-08-20T19:03:07.655Z,1.03
2018-08-20T19:05:35.122Z,1.43
2018-08-20T19:08:02.676Z,2.60
2018-08-20T19:10:30.260Z,0.90
2018-08-20T19:12:57.715Z,1.27
2018-08-20T19:15:25.947Z,1.30
2018-08-20T19:17:53.396Z,1.43
2018-08-20T19:20:20.917Z,1.83
2018-08-20T19:22:48.374Z,1.53
2018-08-20T19:25:15.933Z,0.90
2018-08-20T19:27:43.401Z,1.00
2018-08-20T19:30:10.870Z,3.20
2018-08-20T19:32:38.319Z,1.20
2018-08-20T19:35:05.885Z,0.90
2018-08-20T19:37:33.351Z,1.20
2018-08-20T19:40:00.919Z,0.90
2018-08-20T19:42:29.520Z,0.93
2018-08-20T19:44:58.468Z,0.90
2018-08-20T19:47:25.930Z,1.10
2018-08-20T19:49:53.419Z,1.20
2018-08-20T19:52:20.919Z,1.20
2018-08-20T19:54:48.344Z,1.43
2018-08-20T19:57:15.810Z,1.27
2018-08-20T19:59:43.277Z,1.20
2018-08-20T20:02:10.727Z,1.33
2018-08-20T20:04:38.296Z,1.30
2018-08-20T20:07:05.773Z,2.10
2018-08-20T20:09:33.236Z,3.60
2018-08-20T20:12:00.697Z,3.10
2018-08-20T20:14:28.933Z,0.80
2018-08-20T20:16:56.392Z,0.83
2018-08-20T20:19:23.840Z,1.03
2018-08-20T20:21:51.349Z,0.90
2018-08-20T20:24:18.816Z,1.33
2018-08-20T20:26:46.280Z,0.90
2018-08-20T20:29:13.912Z,1.40
2018-08-20T20:31:41.308Z,1.23
2018-08-20T20:34:08.878Z,1.13
2018-08-20T20:36:36.341Z,1.20
2018-08-20T20:39:03.791Z,2.10
2018-08-20T20:41:31.252Z,2.03
2018-08-20T20:43:58.713Z,1.83
2018-08-20T20:46:26.172Z,2.13
2018-08-20T20:48:53.640Z,1.30
2018-08-20T20:51:21.199Z,1.17
2018-08-20T20:53:48.676Z,1.47
2018-08-20T20:56:16.127Z,1.27
2018-08-20T20:58:43.687Z,1.50
2018-08-20T21:01:11.227Z,1.77
2018-08-20T21:03:38.623Z,1.10
2018-08-20T21:06:06.069Z,2.07
2018-08-20T21:08:33.528Z,2.53
2018-08-20T21:11:00.981Z,1.37
2018-08-20T21:13:28.459Z,1.50
2018-08-20T21:15:55.915Z,1.30
2018-08-20T21:18:23.370Z,1.50
2018-08-20T21:20:50.832Z,2.60
2018-08-20T21:23:18.326Z,1.60
2018-08-20T21:25:45.777Z,2.23
2018-08-20T21:28:13.227Z,1.17
2018-08-20T21:30:40.738Z,1.47
2018-08-20T21:33:08.269Z,1.47
2018-08-20T21:35:35.823Z,1.27
2018-08-20T21:38:03.293Z,1.40
2018-08-20T21:40:30.744Z,1.47
2018-08-20T21:42:58.204Z,1.03
2018-08-20T21:45:25.651Z,1.33
2018-08-20T21:47:53.110Z,1.93
2018-08-20T21:50:20.565Z,1.40
2018-08-20T21:52:48.022Z,1.40
2018-08-20T21:55:15.524Z,1.40
2018-08-20T21:57:42.973Z,1.60
2018-08-20T22:00:10.436Z,2.10
2018-08-20T22:02:37.899Z,1.63
2018-08-20T22:05:05.370Z,1.30
2018-08-20T22:07:32.819Z,1.30
2018-08-20T22:10:00.290Z,1.80
2018-08-20T22:12:27.738Z,1.20
2018-08-20T22:14:55.199Z,1.53
2018-08-20T22:17:22.647Z,1.60
2018-08-20T22:19:50.135Z,3.27
2018-08-20T22:22:17.589Z,1.87
2018-08-20T22:24:45.055Z,1.30
2018-08-20T22:27:12.533Z,1.43
2018-08-20T22:29:39.990Z,2.23
2018-08-20T22:32:07.448Z,1.40
2018-08-20T22:34:34.904Z,1.30
2018-08-20T22:37:02.388Z,2.27
2018-08-20T22:39:29.844Z,1.63
2018-08-20T22:41:57.292Z,1.50
2018-08-20T22:44:24.758Z,1.40
2018-08-20T22:46:52.220Z,1.53
2018-08-20T22:49:19.684Z,1.83
2018-08-20T22:51:47.148Z,2.13
2018-08-20T22:54:14.732Z,2.97
2018-08-20T22:56:42.272Z,1.67
2018-08-20T22:59:09.750Z,1.40
2018-08-20T23:01:37.304Z,1.87
2018-08-20T23:04:04.868Z,1.90
2018-08-20T23:06:32.422Z,1.77
2018-08-20T23:08:59.882Z,2.70
2018-08-20T23:11:27.341Z,1.70
2018-08-20T23:13:54.920Z,1.70
2018-08-20T23:16:22.376Z,1.77
2018-08-20T23:18:49.844Z,1.80
2018-08-20T23:21:17.392Z,1.60
2018-08-20T23:23:44.865Z,3.30
2018-08-20T23:26:12.327Z,1.50
2018-08-20T23:28:39.779Z,1.57
2018-08-20T23:31:07.256Z,2.33
2018-08-20T23:33:34.717Z,1.57
2018-08-20T23:36:02.955Z,1.60
2018-08-20T23:38:30.404Z,1.40
2018-08-20T23:40:58.640Z,1.47
2018-08-20T23:43:26.929Z,1.50
2018-08-20T23:45:54.390Z,1.60
2018-08-20T23:48:21.839Z,1.67
2018-08-20T23:50:49.297Z,1.50
2018-08-20T23:53:16.764Z,1.70
2018-08-20T23:55:44.223Z,5.60
2018-08-20T23:58:11.691Z,2.63
